Time,TemperatureF,DewpointF,PressureIn,WindDirection,WindDirectionDegrees,WindSpeedMPH,WindSpeedGustMPH,Humidity,HourlyPrecipIn,Conditions,Clouds,dailyrainin,SolarRadiationWatts/m^2,SoftwareType,DateUTC
2013-10-31 00:00:00,57.9,56.8,30.17,East,82,0.0,0.0,96,0.00,,,0.00,0.0,meteohub,2013-10-31 04:00:00,
2013-10-31 00:01:00,57.9,56.8,30.17,East,82,0.0,0.0,96,0.00,,,0.00,0.0,meteohub,2013-10-31 04:01:00,
2013-10-31 00:02:00,57.9,56.8,30.17,East,82,0.0,0.0,96,0.00,,,0.00,0.0,meteohub,2013-10-31 04:02:00,
2013-10-31 00:07:00,57.7,56.7,30.17,East,82,0.0,0.0,96,0.00,,,0.00,0.0,meteohub,2013-10-31 04:07:00,
2013-10-31 00:12:00,57.7,56.7,30.17,East,82,0.0,0.0,96,0.00,,,0.00,0.0,meteohub,2013-10-31 04:12:00,
2013-10-31 00:17:00,57.7,56.7,30.17,East,82,0.0,0.0,96,0.00,,,0.00,0.0,meteohub,2013-10-31 04:17:00,
2013-10-31 00:22:00,57.7,56.8,30.17,East,82,0.0,0.0,97,0.00,,,0.00,0.0,meteohub,2013-10-31 04:22:00,
2013-10-31 00:27:00,57.6,56.7,30.17,East,82,0.0,0.0,97,0.00,,,0.00,0.0,meteohub,2013-10-31 04:27:00,
2013-10-31 00:32:00,57.7,56.8,30.17,East,82,0.0,0.0,97,0.00,,,0.00,0.0,meteohub,2013-10-31 04:32:00,
2013-10-31 00:37:00,57.7,56.8,30.17,East,82,0.0,0.0,97,0.00,,,0.00,0.0,meteohub,2013-10-31 04:37:00,
2013-10-31 00:42:00,57.7,56.8,30.16,East,82,0.0,0.0,97,0.00,,,0.00,0.0,meteohub,2013-10-31 04:42:00,
2013-10-31 00:47:00,57.6,56.7,30.16,East,82,0.0,0.0,97,0.00,,,0.00,0.0,meteohub,2013-10-31 04:47:00,
2013-10-31 00:52:00,57.6,56.7,30.16,East,82,0.0,0.0,97,0.00,,,0.00,0.0,meteohub,2013-10-31 04:52:00,
2013-10-31 00:57:00,57.6,56.7,30.16,East,82,0.0,0.0,97,0.00,,,0.00,0.0,meteohub,2013-10-31 04:57:00,
2013-10-31 01:02:00,57.6,56.7,30.16,East,82,0.0,0.0,97,0.00,,,0.00,0.0,meteohub,2013-10-31 05:02:00,
2013-10-31 01:07:00,57.6,56.7,30.16,East,82,0.0,0.0,97,0.00,,,0.00,0.0,meteohub,2013-10-31 05:07:00,
2013-10-31 01:12:00,57.6,56.7,30.16,East,82,0.0,0.0,97,0.00,,,0.00,0.0,meteohub,2013-10-31 05:12:00,
2013-10-31 01:17:00,57.6,56.7,30.16,East,82,0.0,0.0,97,0.00,,,0.00,0.0,meteohub,2013-10-31 05:17:00,
2013-10-31 01:22:00,57.6,56.7,30.16,East,82,0.0,0.0,97,0.00,,,0.00,0.0,meteohub,2013-10-31 05:22:00,
2013-10-31 01:27:00,57.6,56.7,30.16,East,82,0.0,0.0,97,0.00,,,0.00,0.0,meteohub,2013-10-31 05:27:00,
2013-10-31 01:32:00,57.6,56.7,30.16,East,82,0.0,0.0,97,0.00,,,0.00,0.0,meteohub,2013-10-31 05:32:00,
2013-10-31 01:37:00,57.6,56.7,30.16,East,82,0.0,0.0,97,0.00,,,0.00,0.0,meteohub,2013-10-31 05:37:00,
2013-10-31 01:42:00,57.4,56.5,30.16,East,82,0.0,0.0,97,0.00,,,0.00,0.0,meteohub,2013-10-31 05:42:00,
2013-10-31 01:47:00,57.4,56.5,30.16,East,82,0.0,0.0,97,0.00,,,0.00,0.0,meteohub,2013-10-31 05:47:00,
2013-10-31 01:52:00,57.4,56.5,30.16,East,82,0.0,0.0,97,0.00,,,0.00,0.0,meteohub,2013-10-31 05:52:00,
2013-10-31 01:57:00,57.2,56.3,30.16,East,82,0.0,0.0,97,0.00,,,0.00,0.0,meteohub,2013-10-31 05:57:00,
2013-10-31 02:02:00,57.2,56.3,30.15,East,82,0.0,0.0,97,0.00,,,0.00,0.0,meteohub,2013-10-31 06:02:00,
2013-10-31 02:07:00,57.0,56.1,30.15,East,82,0.0,0.0,97,0.00,,,0.00,0.0,meteohub,2013-10-31 06:07:00,
2013-10-31 02:12:00,57.0,56.1,30.15,East,82,0.0,0.0,97,0.00,,,0.00,0.0,meteohub,2013-10-31 06:12:00,
2013-10-31 02:17:00,56.8,55.9,30.15,East,82,0.0,0.0,97,0.00,,,0.00,0.0,meteohub,2013-10-31 06:17:00,
2013-10-31 02:22:00,56.8,55.9,30.15,East,82,0.0,0.0,97,0.00,,,0.00,0.0,meteohub,2013-10-31 06:22:00,
2013-10-31 02:27:00,56.8,55.9,30.15,East,82,0.0,0.0,97,0.00,,,0.00,0.0,meteohub,2013-10-31 06:27:00,
2013-10-31 02:32:00,56.8,55.9,30.15,East,82,0.0,0.0,97,0.00,,,0.00,0.0,meteohub,2013-10-31 06:32:00,
2013-10-31 02:37:00,56.8,55.9,30.15,East,82,0.0,0.0,97,0.00,,,0.00,0.0,meteohub,2013-10-31 06:37:00,
2013-10-31 02:42:00,56.7,55.8,30.15,East,82,0.0,0.0,97,0.00,,,0.00,0.0,meteohub,2013-10-31 06:42:00,
2013-10-31 02:47:00,56.7,55.8,30.14,East,82,0.0,0.0,97,0.00,,,0.00,0.0,meteohub,2013-10-31 06:47:00,
2013-10-31 02:53:00,56.7,55.8,30.15,East,82,0.0,0.0,97,0.00,,,0.00,0.0,meteohub,2013-10-31 06:53:00,
2013-10-31 02:58:00,56.7,55.8,30.15,East,82,0.0,0.0,97,0.00,,,0.00,0.0,meteohub,2013-10-31 06:58:00,
2013-10-31 03:02:00,56.7,55.8,30.15,East,82,0.0,0.0,97,0.00,,,0.00,0.0,meteohub,2013-10-31 07:02:00,
2013-10-31 03:07:00,56.7,55.8,30.15,East,82,0.0,0.0,97,0.00,,,0.00,0.0,meteohub,2013-10-31 07:07:00,
2013-10-31 03:13:00,56.8,55.9,30.14,East,82,0.0,0.0,97,0.00,,,0.00,0.0,meteohub,2013-10-31 07:13:00,
2013-10-31 03:18:00,56.8,55.9,30.14,East,82,0.0,0.0,97,0.00,,,0.00,0.0,meteohub,2013-10-31 07:18:00,
2013-10-31 03:23:00,56.8,55.9,30.14,East,82,0.0,0.0,97,0.00,,,0.00,0.0,meteohub,2013-10-31 07:23:00,
2013-10-31 03:28:00,56.8,55.9,30.14,East,82,0.0,0.0,97,0.00,,,0.00,0.0,meteohub,2013-10-31 07:28:00,
2013-10-31 03:33:00,56.8,55.9,30.14,East,82,0.0,0.0,97,0.00,,,0.00,0.0,meteohub,2013-10-31 07:33:00,
2013-10-31 03:38:00,56.8,55.9,30.14,East,82,0.0,0.0,97,0.00,,,0.00,0.0,meteohub,2013-10-31 07:38:00,
2013-10-31 03:43:00,56.8,55.9,30.14,East,82,0.0,0.0,97,0.00,,,0.00,0.0,meteohub,2013-10-31 07:43:00,
2013-10-31 03:48:00,56.7,55.8,30.14,East,82,0.0,0.0,97,0.00,,,0.00,0.0,meteohub,2013-10-31 07:48:00,
2013-10-31 03:53:00,56.7,55.8,30.14,East,82,0.0,0.0,97,0.00,,,0.00,0.0,meteohub,2013-10-31 07:53:00,
2013-10-31 03:58:00,56.7,55.8,30.13,East,82,0.0,0.0,97,0.00,,,0.00,0.0,meteohub,2013-10-31 07:58:00,
2013-10-31 04:03:00,56.7,55.8,30.13,East,82,0.0,0.0,97,0.00,,,0.00,0.0,meteohub,2013-10-31 08:03:00,
2013-10-31 04:08:00,56.7,55.8,30.13,East,82,0.0,0.0,97,0.00,,,0.00,0.0,meteohub,2013-10-31 08:08:00,
2013-10-31 04:13:00,56.5,55.6,30.13,East,82,0.0,0.0,97,0.00,,,0.00,0.0,meteohub,2013-10-31 08:13:00,
2013-10-31 04:18:00,56.5,55.6,30.13,East,82,0.0,0.0,97,0.00,,,0.00,0.0,meteohub,2013-10-31 08:18:00,
2013-10-31 04:23:00,56.5,55.6,30.12,East,82,0.0,0.0,97,0.00,,,0.00,0.0,meteohub,2013-10-31 08:23:00,
2013-10-31 04:28:00,56.3,55.4,30.12,East,82,0.0,0.0,97,0.00,,,0.00,0.0,meteohub,2013-10-31 08:28:00,
2013-10-31 04:33:00,56.3,55.4,30.12,East,82,0.0,0.0,97,0.00,,,0.00,0.0,meteohub,2013-10-31 08:33:00,
2013-10-31 04:38:00,56.3,55.4,30.12,East,82,0.0,0.0,97,0.00,,,0.00,0.0,meteohub,2013-10-31 08:38:00,
2013-10-31 04:43:00,56.3,55.4,30.12,East,82,0.0,0.0,97,0.00,,,0.00,0.0,meteohub,2013-10-31 08:43:00,
2013-10-31 04:48:00,56.5,55.6,30.12,East,82,0.0,0.0,97,0.00,,,0.00,0.0,meteohub,2013-10-31 08:48:00,
2013-10-31 04:53:00,56.5,55.6,30.12,East,82,0.0,0.0,97,0.00,,,0.00,0.0,meteohub,2013-10-31 08:53:00,
2013-10-31 04:58:00,56.5,55.6,30.12,East,82,0.0,0.0,97,0.00,,,0.00,0.0,meteohub,2013-10-31 08:58:00,
2013-10-31 05:03:00,56.5,55.6,30.12,East,82,0.0,0.0,97,0.00,,,0.00,0.0,meteohub,2013-10-31 09:03:00,
2013-10-31 05:08:00,56.3,55.4,30.12,East,82,0.0,0.0,97,0.00,,,0.00,0.0,meteohub,2013-10-31 09:08:00,
2013-10-31 05:13:00,56.1,55.2,30.12,East,82,0.0,0.0,97,0.00,,,0.00,0.0,meteohub,2013-10-31 09:13:00,
2013-10-31 05:18:00,56.3,55.4,30.12,East,82,0.0,0.0,97,0.00,,,0.00,0.0,meteohub,2013-10-31 09:18:00,
2013-10-31 05:23:00,56.3,55.4,30.11,East,82,0.0,0.0,97,0.00,,,0.00,0.0,meteohub,2013-10-31 09:23:00,
2013-10-31 05:28:00,56.1,55.2,30.12,East,82,0.0,0.0,97,0.00,,,0.00,0.0,meteohub,2013-10-31 09:28:00,
2013-10-31 05:33:00,56.1,55.2,30.12,East,82,0.0,0.0,97,0.00,,,0.00,0.0,meteohub,2013-10-31 09:33:00,
2013-10-31 05:38:00,56.1,55.2,30.12,East,82,0.0,0.0,97,0.00,,,0.00,0.0,meteohub,2013-10-31 09:38:00,
2013-10-31 05:43:00,56.1,55.2,30.12,East,82,0.0,0.0,97,0.00,,,0.00,0.0,meteohub,2013-10-31 09:43:00,
2013-10-31 05:48:00,56.1,55.2,30.12,East,82,0.0,0.0,97,0.00,,,0.00,0.0,meteohub,2013-10-31 09:48:00,
2013-10-31 05:53:00,56.1,55.2,30.12,East,82,0.0,0.0,97,0.00,,,0.00,0.0,meteohub,2013-10-31 09:53:00,
2013-10-31 05:58:00,56.1,55.2,30.12,East,82,0.0,0.0,97,0.00,,,0.00,0.0,meteohub,2013-10-31 09:58:00,
2013-10-31 06:03:00,56.5,55.9,30.12,East,82,0.0,0.0,98,0.00,,,0.00,0.0,meteohub,2013-10-31 10:03:00,
2013-10-31 06:08:00,56.5,55.9,30.12,East,82,0.0,0.0,98,0.00,,,0.00,0.0,meteohub,2013-10-31 10:08:00,
2013-10-31 06:13:00,56.5,55.9,30.12,East,82,0.0,0.0,98,0.00,,,0.00,0.0,meteohub,2013-10-31 10:13:00,
2013-10-31 06:18:00,56.7,56.1,30.12,East,82,0.0,0.0,98,0.00,,,0.00,0.0,meteohub,2013-10-31 10:18:00,
2013-10-31 06:23:00,56.7,56.1,30.12,East,82,0.0,0.0,98,0.00,,,0.00,0.0,meteohub,2013-10-31 10:23:00,
2013-10-31 06:28:00,56.7,56.1,30.12,East,82,0.0,0.0,98,0.00,,,0.00,0.0,meteohub,2013-10-31 10:28:00,
2013-10-31 06:33:00,56.7,56.1,30.12,East,82,0.0,0.0,98,0.00,,,0.00,0.0,meteohub,2013-10-31 10:33:00,
2013-10-31 06:38:00,56.7,56.1,30.12,East,82,0.0,0.0,98,0.00,,,0.00,0.0,meteohub,2013-10-31 10:38:00,
2013-10-31 06:43:00,56.5,55.9,30.12,East,82,0.0,0.0,98,0.00,,,0.00,0.0,meteohub,2013-10-31 10:43:00,
2013-10-31 06:48:00,56.7,55.8,30.12,East,82,0.0,0.0,97,0.00,,,0.00,0.0,meteohub,2013-10-31 10:48:00,
2013-10-31 06:53:00,56.8,55.9,30.12,East,82,0.0,0.0,97,0.00,,,0.00,0.0,meteohub,2013-10-31 10:53:00,
2013-10-31 06:58:00,56.8,55.9,30.12,East,82,0.0,0.0,97,0.00,,,0.00,0.0,meteohub,2013-10-31 10:58:00,
2013-10-31 07:03:00,56.8,55.9,30.12,East,82,0.0,0.0,97,0.00,,,0.00,0.0,meteohub,2013-10-31 11:03:00,
2013-10-31 07:08:00,56.8,55.9,30.12,East,82,0.0,0.0,97,0.00,,,0.00,0.0,meteohub,2013-10-31 11:08:00,
2013-10-31 07:13:00,57.0,56.5,30.12,East,82,0.0,0.0,98,0.00,,,0.00,0.0,meteohub,2013-10-31 11:13:00,
2013-10-31 07:18:00,57.0,56.5,30.12,East,82,0.0,0.0,98,0.00,,,0.00,0.0,meteohub,2013-10-31 11:18:00,
2013-10-31 07:23:00,57.0,56.5,30.13,East,82,0.0,0.0,98,0.00,,,0.00,0.0,meteohub,2013-10-31 11:23:00,
2013-10-31 07:28:00,56.8,56.3,30.12,East,82,0.0,0.0,98,0.00,,,0.00,0.0,meteohub,2013-10-31 11:28:00,
2013-10-31 07:33:00,56.8,56.3,30.12,East,82,0.0,0.0,98,0.00,,,0.00,0.0,meteohub,2013-10-31 11:33:00,
2013-10-31 07:38:00,57.0,56.5,30.12,East,82,0.0,0.0,98,0.00,,,0.00,0.0,meteohub,2013-10-31 11:38:00,
2013-10-31 07:43:00,57.0,56.5,30.12,East,82,0.0,0.0,98,0.00,,,0.00,0.0,meteohub,2013-10-31 11:43:00,
2013-10-31 07:48:00,57.2,56.7,30.12,East,82,0.0,0.0,98,0.00,,,0.00,5.0,meteohub,2013-10-31 11:48:00,
2013-10-31 07:53:00,57.4,56.8,30.13,East,82,0.0,0.0,98,0.00,,,0.00,7.0,meteohub,2013-10-31 11:53:00,
2013-10-31 07:58:00,57.4,56.8,30.12,East,82,0.0,0.0,98,0.00,,,0.00,11.0,meteohub,2013-10-31 11:58:00,
2013-10-31 08:03:00,57.6,57.0,30.12,East,82,0.0,0.0,98,0.00,,,0.00,11.0,meteohub,2013-10-31 12:03:00,
2013-10-31 08:08:00,57.7,57.2,30.13,East,82,0.0,0.0,98,0.00,,,0.00,16.0,meteohub,2013-10-31 12:08:00,
2013-10-31 08:13:00,58.1,57.6,30.13,East,82,0.0,0.0,98,0.00,,,0.00,23.0,meteohub,2013-10-31 12:13:00,
2013-10-31 08:18:00,58.6,58.1,30.13,East,82,0.0,0.0,98,0.00,,,0.00,14.0,meteohub,2013-10-31 12:18:00,
2013-10-31 08:23:00,59.0,58.5,30.13,East,82,0.0,0.0,98,0.00,,,0.00,28.0,meteohub,2013-10-31 12:23:00,
2013-10-31 08:28:00,59.0,58.5,30.13,East,82,0.0,0.0,98,0.00,,,0.00,81.0,meteohub,2013-10-31 12:28:00,
2013-10-31 08:33:00,59.7,59.2,30.13,East,82,0.0,0.0,98,0.00,,,0.00,113.0,meteohub,2013-10-31 12:33:00,
2013-10-31 08:38:00,60.6,60.1,30.13,East,82,0.0,0.0,98,0.00,,,0.00,46.0,meteohub,2013-10-31 12:38:00,
2013-10-31 08:43:00,61.2,60.6,30.14,East,82,0.0,0.0,98,0.00,,,0.00,44.0,meteohub,2013-10-31 12:43:00,
2013-10-31 08:48:00,61.3,60.8,30.14,East,82,0.0,0.0,98,0.00,,,0.00,58.0,meteohub,2013-10-31 12:48:00,
2013-10-31 08:53:00,61.9,61.3,30.14,East,82,0.0,0.0,98,0.00,,,0.00,74.0,meteohub,2013-10-31 12:53:00,
2013-10-31 08:58:00,62.2,61.7,30.14,East,82,0.0,0.0,98,0.00,,,0.00,62.0,meteohub,2013-10-31 12:58:00,
2013-10-31 09:03:00,62.8,62.2,30.14,East,82,0.0,0.0,98,0.00,,,0.00,204.0,meteohub,2013-10-31 13:03:00,
2013-10-31 09:08:00,64.0,63.5,30.14,East,82,0.0,0.0,98,0.00,,,0.00,190.0,meteohub,2013-10-31 13:08:00,
2013-10-31 09:13:00,65.5,64.9,30.14,East,82,0.0,0.0,98,0.00,,,0.00,204.0,meteohub,2013-10-31 13:13:00,
2013-10-31 09:18:00,66.6,66.0,30.14,East,82,0.0,0.0,98,0.00,,,0.00,216.0,meteohub,2013-10-31 13:18:00,
2013-10-31 09:23:00,67.5,67.1,30.14,East,82,0.0,0.0,99,0.00,,,0.00,218.0,meteohub,2013-10-31 13:23:00,
2013-10-31 09:28:00,67.8,67.5,30.14,East,82,0.0,0.0,99,0.00,,,0.00,234.0,meteohub,2013-10-31 13:28:00,
2013-10-31 09:33:00,68.7,68.4,30.14,East,82,0.0,0.0,99,0.00,,,0.00,246.0,meteohub,2013-10-31 13:33:00,
2013-10-31 09:38:00,69.4,69.1,30.13,East,82,0.0,0.0,99,0.00,,,0.00,227.0,meteohub,2013-10-31 13:38:00,
2013-10-31 09:43:00,70.0,69.6,30.13,NE,34,0.0,1.0,99,0.00,,,0.00,250.0,meteohub,2013-10-31 13:43:00,
2013-10-31 09:48:00,70.5,70.2,30.13,ENE,67,0.0,3.0,99,0.00,,,0.00,176.0,meteohub,2013-10-31 13:48:00,
2013-10-31 09:53:00,71.4,70.9,30.13,ENE,69,1.0,3.0,98,0.00,,,0.00,287.0,meteohub,2013-10-31 13:53:00,
2013-10-31 09:58:00,72.5,72.0,30.13,NE,46,0.0,3.0,98,0.00,,,0.00,308.0,meteohub,2013-10-31 13:58:00,
2013-10-31 10:03:00,73.2,71.8,30.13,ENE,64,0.0,3.0,95,0.00,,,0.00,214.0,meteohub,2013-10-31 14:03:00,
2013-10-31 10:08:00,73.9,71.4,30.13,NE,51,2.0,3.0,92,0.00,,,0.00,311.0,meteohub,2013-10-31 14:08:00,
2013-10-31 10:13:00,74.5,71.1,30.13,East,89,0.0,5.0,89,0.00,,,0.00,320.0,meteohub,2013-10-31 14:13:00,
2013-10-31 10:18:00,75.4,71.2,30.12,ENE,68,2.0,5.0,87,0.00,,,0.00,343.0,meteohub,2013-10-31 14:18:00,
2013-10-31 10:23:00,76.1,70.9,30.12,ENE,74,0.0,5.0,84,0.00,,,0.00,357.0,meteohub,2013-10-31 14:23:00,
2013-10-31 10:28:00,76.6,71.4,30.12,SE,139,0.0,4.0,84,0.00,,,0.00,376.0,meteohub,2013-10-31 14:28:00,
2013-10-31 10:33:00,77.2,70.5,30.12,East,82,0.0,4.0,80,0.00,,,0.00,253.0,meteohub,2013-10-31 14:33:00,
2013-10-31 10:38:00,77.4,71.1,30.12,East,81,1.0,5.0,81,0.00,,,0.00,355.0,meteohub,2013-10-31 14:38:00,
2013-10-31 10:43:00,77.7,71.1,30.12,SE,145,5.0,5.0,80,0.00,,,0.00,415.0,meteohub,2013-10-31 14:43:00,
2013-10-31 10:48:00,78.1,71.1,30.12,East,86,3.0,5.0,79,0.00,,,0.00,417.0,meteohub,2013-10-31 14:48:00,
2013-10-31 10:53:00,78.3,70.5,30.12,NNE,17,0.0,7.0,77,0.00,,,0.00,388.0,meteohub,2013-10-31 14:53:00,
2013-10-31 10:58:00,78.6,70.3,30.12,SSE,160,0.0,7.0,76,0.00,,,0.00,427.0,meteohub,2013-10-31 14:58:00,
2013-10-31 11:03:00,78.6,70.0,30.12,SSW,202,0.0,7.0,75,0.00,,,0.00,445.0,meteohub,2013-10-31 15:03:00,
2013-10-31 11:08:00,78.8,70.5,30.12,SSE,159,2.0,8.0,76,0.00,,,0.00,457.0,meteohub,2013-10-31 15:08:00,
2013-10-31 11:13:00,79.3,70.3,30.12,SSE,151,0.0,8.0,74,0.00,,,0.00,483.0,meteohub,2013-10-31 15:13:00,
2013-10-31 11:19:00,79.7,70.3,30.12,SE,129,0.0,8.0,73,0.00,,,0.00,220.0,meteohub,2013-10-31 15:19:00,
2013-10-31 11:24:00,79.3,70.0,30.12,East,96,0.0,7.0,73,0.00,,,0.00,473.0,meteohub,2013-10-31 15:24:00,
2013-10-31 11:29:00,79.5,70.5,30.12,ESE,122,0.0,7.0,74,0.00,,,0.00,496.0,meteohub,2013-10-31 15:29:00,
2013-10-31 11:34:00,80.1,71.1,30.12,East,88,0.0,7.0,74,0.00,,,0.00,520.0,meteohub,2013-10-31 15:34:00,
2013-10-31 11:39:00,80.4,70.5,30.12,SE,141,0.0,6.0,72,0.00,,,0.00,552.0,meteohub,2013-10-31 15:39:00,
2013-10-31 11:44:00,81.0,70.2,30.12,SSW,206,5.0,13.0,70,0.00,,,0.00,559.0,meteohub,2013-10-31 15:44:00,
2013-10-31 11:49:00,80.4,70.2,30.12,SSE,153,0.0,13.0,71,0.00,,,0.00,135.0,meteohub,2013-10-31 15:49:00,
2013-10-31 11:54:00,79.7,69.4,30.12,SE,134,6.0,13.0,71,0.00,,,0.00,211.0,meteohub,2013-10-31 15:54:00,
2013-10-31 11:59:00,79.9,70.5,30.11,ESE,115,0.0,10.0,73,0.00,,,0.00,636.0,meteohub,2013-10-31 15:59:00,
2013-10-31 12:04:00,80.4,70.2,30.11,SSE,166,2.0,10.0,71,0.00,,,0.00,325.0,meteohub,2013-10-31 16:04:00,
2013-10-31 12:09:00,79.7,69.4,30.11,SSE,168,1.0,9.0,71,0.00,,,0.00,162.0,meteohub,2013-10-31 16:09:00,
2013-10-31 12:14:00,79.2,69.8,30.11,SSE,167,1.0,8.0,73,0.00,,,0.00,172.0,meteohub,2013-10-31 16:14:00,
2013-10-31 12:19:00,78.6,69.6,30.10,SE,125,6.0,8.0,74,0.00,,,0.00,178.0,meteohub,2013-10-31 16:19:00,
2013-10-31 12:24:00,78.3,69.3,30.10,ESE,114,0.0,8.0,74,0.00,,,0.00,186.0,meteohub,2013-10-31 16:24:00,
2013-10-31 12:29:00,78.3,69.6,30.10,SSE,149,3.0,7.0,75,0.00,,,0.00,216.0,meteohub,2013-10-31 16:29:00,
2013-10-31 12:34:00,78.3,70.0,30.10,South,182,0.0,7.0,76,0.00,,,0.00,420.0,meteohub,2013-10-31 16:34:00,
2013-10-31 12:39:00,79.0,70.3,30.10,SSE,153,8.0,8.0,75,0.00,,,0.00,554.0,meteohub,2013-10-31 16:39:00,
2013-10-31 12:44:00,79.5,70.5,30.09,SSW,209,0.0,7.0,74,0.00,,,0.00,742.0,meteohub,2013-10-31 16:44:00,
2013-10-31 12:49:00,80.1,70.7,30.09,SSE,159,0.0,8.0,73,0.00,,,0.00,629.0,meteohub,2013-10-31 16:49:00,
2013-10-31 12:54:00,80.2,70.3,30.09,SSW,205,0.0,8.0,72,0.00,,,0.00,629.0,meteohub,2013-10-31 16:54:00,
2013-10-31 12:59:00,80.2,70.9,30.09,ESE,114,3.0,10.0,73,0.00,,,0.00,269.0,meteohub,2013-10-31 16:59:00,
2013-10-31 13:04:00,80.1,70.7,30.08,South,184,6.0,10.0,73,0.00,,,0.00,357.0,meteohub,2013-10-31 17:04:00,
2013-10-31 13:09:00,80.4,70.9,30.08,ESE,115,2.0,10.0,73,0.00,,,0.00,652.0,meteohub,2013-10-31 17:09:00,
2013-10-31 13:14:00,81.0,71.1,30.08,South,172,1.0,10.0,72,0.00,,,0.00,469.0,meteohub,2013-10-31 17:14:00,
2013-10-31 13:19:00,81.0,70.7,30.07,SSE,165,2.0,8.0,71,0.00,,,0.00,550.0,meteohub,2013-10-31 17:19:00,
2013-10-31 13:24:00,81.1,71.2,30.06,SSE,159,0.0,9.0,72,0.00,,,0.00,606.0,meteohub,2013-10-31 17:24:00,
2013-10-31 13:29:00,81.3,71.1,30.06,NW,322,0.0,10.0,71,0.00,,,0.00,584.0,meteohub,2013-10-31 17:29:00,
2013-10-31 13:34:00,81.0,70.2,30.06,East,87,1.0,14.0,70,0.00,,,0.00,592.0,meteohub,2013-10-31 17:34:00,
2013-10-31 13:39:00,80.8,70.9,30.06,SSE,161,1.0,14.0,72,0.00,,,0.00,445.0,meteohub,2013-10-31 17:39:00,
2013-10-31 13:44:00,80.4,70.2,30.05,SE,140,1.0,14.0,71,0.00,,,0.00,490.0,meteohub,2013-10-31 17:44:00,
2013-10-31 13:49:00,80.8,70.5,30.05,East,100,6.0,12.0,71,0.00,,,0.00,536.0,meteohub,2013-10-31 17:49:00,
2013-10-31 13:54:00,80.8,70.2,30.05,ESE,109,1.0,11.0,70,0.00,,,0.00,506.0,meteohub,2013-10-31 17:54:00,
2013-10-31 13:59:00,80.6,70.0,30.05,WSW,250,4.0,10.0,70,0.00,,,0.00,445.0,meteohub,2013-10-31 17:59:00,
2013-10-31 14:04:00,80.4,70.2,30.05,SSE,163,3.0,10.0,71,0.00,,,0.00,369.0,meteohub,2013-10-31 18:04:00,
2013-10-31 14:09:00,80.1,69.4,30.05,East,84,6.0,9.0,70,0.00,,,0.00,313.0,meteohub,2013-10-31 18:09:00,
2013-10-31 14:14:00,79.9,69.3,30.04,South,182,4.0,9.0,70,0.00,,,0.00,362.0,meteohub,2013-10-31 18:14:00,
2013-10-31 14:19:00,79.9,69.3,30.04,South,183,3.0,9.0,70,0.00,,,0.00,366.0,meteohub,2013-10-31 18:19:00,
2013-10-31 14:24:00,80.1,69.4,30.04,SSE,148,3.0,9.0,70,0.00,,,0.00,329.0,meteohub,2013-10-31 18:24:00,
2013-10-31 14:29:00,79.9,69.6,30.04,South,190,6.0,10.0,71,0.00,,,0.00,367.0,meteohub,2013-10-31 18:29:00,
2013-10-31 14:34:00,80.1,69.8,30.04,SSE,148,2.0,10.0,71,0.00,,,0.00,378.0,meteohub,2013-10-31 18:34:00,
2013-10-31 14:39:00,79.9,69.6,30.04,SE,132,5.0,10.0,71,0.00,,,0.00,162.0,meteohub,2013-10-31 18:39:00,
2013-10-31 14:44:00,79.9,69.6,30.04,SSE,155,6.0,11.0,71,0.00,,,0.00,483.0,meteohub,2013-10-31 18:44:00,
2013-10-31 14:49:00,79.9,70.0,30.03,ESE,123,2.0,11.0,72,0.00,,,0.00,494.0,meteohub,2013-10-31 18:49:00,
2013-10-31 14:54:00,80.1,69.8,30.03,SSE,160,2.0,10.0,71,0.00,,,0.00,469.0,meteohub,2013-10-31 18:54:00,
2013-10-31 14:59:00,80.4,68.9,30.03,SE,141,4.0,7.0,68,0.00,,,0.00,476.0,meteohub,2013-10-31 18:59:00,
2013-10-31 15:04:00,80.4,69.3,30.03,SSE,165,1.0,11.0,69,0.00,,,0.00,434.0,meteohub,2013-10-31 19:04:00,
2013-10-31 15:09:00,80.8,69.6,30.03,ESE,114,1.0,12.0,69,0.00,,,0.00,418.0,meteohub,2013-10-31 19:09:00,
2013-10-31 15:14:00,81.0,69.8,30.02,SSE,153,3.0,12.0,69,0.00,,,0.00,431.0,meteohub,2013-10-31 19:14:00,
2013-10-31 15:19:00,81.1,68.7,30.02,West,260,5.0,10.0,66,0.00,,,0.00,461.0,meteohub,2013-10-31 19:19:00,
2013-10-31 15:24:00,81.1,68.2,30.03,SSE,148,8.0,10.0,65,0.00,,,0.00,397.0,meteohub,2013-10-31 19:24:00,
2013-10-31 15:29:00,81.0,68.0,30.02,SE,127,0.0,9.0,65,0.00,,,0.00,339.0,meteohub,2013-10-31 19:29:00,
2013-10-31 15:34:00,81.0,68.9,30.02,South,171,0.0,9.0,67,0.00,,,0.00,403.0,meteohub,2013-10-31 19:34:00,
2013-10-31 15:39:00,81.1,68.2,30.02,SSE,161,4.0,9.0,65,0.00,,,0.00,438.0,meteohub,2013-10-31 19:39:00,
2013-10-31 15:44:00,81.1,68.2,30.02,SE,134,0.0,11.0,65,0.00,,,0.00,341.0,meteohub,2013-10-31 19:44:00,
2013-10-31 15:49:00,81.1,68.7,30.01,ESE,109,1.0,11.0,66,0.00,,,0.00,301.0,meteohub,2013-10-31 19:49:00,
2013-10-31 15:54:00,81.0,69.4,30.01,ENE,63,0.0,11.0,68,0.00,,,0.00,283.0,meteohub,2013-10-31 19:54:00,
2013-10-31 15:59:00,80.6,69.1,30.01,SSW,205,3.0,8.0,68,0.00,,,0.00,302.0,meteohub,2013-10-31 19:59:00,
2013-10-31 16:04:00,80.2,68.7,30.01,East,93,3.0,8.0,68,0.00,,,0.00,322.0,meteohub,2013-10-31 20:04:00,
2013-10-31 16:09:00,79.9,68.7,30.01,East,98,1.0,9.0,69,0.00,,,0.00,288.0,meteohub,2013-10-31 20:09:00,
2013-10-31 16:14:00,79.3,68.7,30.00,SSE,155,0.0,11.0,70,0.00,,,0.00,336.0,meteohub,2013-10-31 20:14:00,
2013-10-31 16:19:00,79.5,68.9,29.99,SSE,159,0.0,11.0,70,0.00,,,0.00,269.0,meteohub,2013-10-31 20:19:00,
2013-10-31 16:24:00,79.2,68.2,29.99,SE,128,1.0,11.0,69,0.00,,,0.00,232.0,meteohub,2013-10-31 20:24:00,
2013-10-31 16:29:00,79.2,68.5,29.99,East,97,1.0,9.0,70,0.00,,,0.00,188.0,meteohub,2013-10-31 20:29:00,
2013-10-31 16:34:00,79.0,68.7,29.99,SE,132,1.0,9.0,71,0.00,,,0.00,169.0,meteohub,2013-10-31 20:34:00,
2013-10-31 16:39:00,78.8,69.1,29.99,ESE,110,3.0,9.0,72,0.00,,,0.00,134.0,meteohub,2013-10-31 20:39:00,
2013-10-31 16:44:00,78.6,68.4,29.99,East,96,0.0,7.0,71,0.00,,,0.00,100.0,meteohub,2013-10-31 20:44:00,
2013-10-31 16:49:00,78.3,68.5,29.99,ESE,115,2.0,8.0,72,0.00,,,0.00,90.0,meteohub,2013-10-31 20:49:00,
2013-10-31 16:54:00,77.9,68.5,29.99,ESE,117,0.0,8.0,73,0.00,,,0.00,83.0,meteohub,2013-10-31 20:54:00,
2013-10-31 16:59:00,77.5,68.5,29.99,ESE,114,2.0,8.0,74,0.00,,,0.00,74.0,meteohub,2013-10-31 20:59:00,
2013-10-31 17:04:00,77.4,68.9,29.99,SE,145,5.0,8.0,75,0.00,,,0.00,67.0,meteohub,2013-10-31 21:04:00,
2013-10-31 17:09:00,77.2,68.7,29.98,East,94,1.0,8.0,75,0.00,,,0.00,62.0,meteohub,2013-10-31 21:09:00,
2013-10-31 17:14:00,76.8,68.4,29.98,ESE,119,0.0,8.0,75,0.00,,,0.00,60.0,meteohub,2013-10-31 21:14:00,
2013-10-31 17:19:00,76.6,68.5,29.98,ESE,104,0.0,14.0,76,0.00,,,0.00,60.0,meteohub,2013-10-31 21:19:00,
2013-10-31 17:24:00,76.6,68.5,29.98,SSW,207,0.0,14.0,76,0.00,,,0.00,60.0,meteohub,2013-10-31 21:24:00,
2013-10-31 17:29:00,76.5,68.7,29.98,SE,125,4.0,6.0,77,0.00,,,0.00,58.0,meteohub,2013-10-31 21:29:00,
2013-10-31 17:34:00,76.5,68.7,29.97,SE,126,1.0,6.0,77,0.00,,,0.00,58.0,meteohub,2013-10-31 21:34:00,
2013-10-31 17:39:00,76.3,68.9,29.98,ESE,104,0.0,6.0,78,0.00,,,0.00,53.0,meteohub,2013-10-31 21:39:00,
2013-10-31 17:44:00,76.3,68.9,29.97,SE,141,1.0,6.0,78,0.00,,,0.00,49.0,meteohub,2013-10-31 21:44:00,
2013-10-31 17:49:00,76.3,68.9,29.97,SSE,149,0.0,3.0,78,0.00,,,0.00,42.0,meteohub,2013-10-31 21:49:00,
2013-10-31 17:54:00,76.1,69.1,29.97,East,95,0.0,3.0,79,0.00,,,0.00,39.0,meteohub,2013-10-31 21:54:00,
2013-10-31 17:59:00,75.9,69.3,29.97,East,96,0.0,3.0,80,0.00,,,0.00,42.0,meteohub,2013-10-31 21:59:00,
2013-10-31 18:04:00,75.7,69.1,29.97,East,98,0.0,3.0,80,0.00,,,0.00,39.0,meteohub,2013-10-31 22:04:00,
2013-10-31 18:09:00,75.6,69.3,29.98,SSE,161,0.0,3.0,81,0.00,,,0.00,33.0,meteohub,2013-10-31 22:09:00,
2013-10-31 18:14:00,75.4,69.1,29.97,ESE,117,0.0,3.0,81,0.00,,,0.00,21.0,meteohub,2013-10-31 22:14:00,
2013-10-31 18:19:00,75.2,69.0,29.97,SE,132,0.0,-999.0,82,-99.99,,,0.00,11,weatherlink.com 1.10,2013-10-31 22:19:00,
2013-10-31 18:24:00,74.8,68.9,29.97,SE,132,0.0,4.0,82,0.00,,,0.00,5.0,meteohub,2013-10-31 22:24:00,
2013-10-31 18:29:00,74.7,69.1,29.97,SE,132,0.0,4.0,83,0.00,,,0.00,0.0,meteohub,2013-10-31 22:29:00,
2013-10-31 18:35:00,74.5,68.9,29.97,SE,132,0.0,2.0,83,0.00,,,0.00,0.0,meteohub,2013-10-31 22:35:00,
2013-10-31 18:40:00,74.1,68.9,29.97,SE,132,0.0,1.0,84,0.00,,,0.00,0.0,meteohub,2013-10-31 22:40:00,
2013-10-31 18:44:00,73.8,68.9,29.97,SE,132,0.0,1.0,85,0.00,,,0.00,0.0,meteohub,2013-10-31 22:44:00,
2013-10-31 18:49:00,73.6,68.7,29.96,SE,132,0.0,1.0,85,0.00,,,0.00,0.0,meteohub,2013-10-31 22:49:00,
2013-10-31 18:55:00,73.2,68.7,29.96,SE,132,0.0,1.0,86,0.00,,,0.00,0.0,meteohub,2013-10-31 22:55:00,
2013-10-31 19:00:00,73.0,68.5,29.97,SE,132,0.0,1.0,86,0.00,,,0.00,0.0,meteohub,2013-10-31 23:00:00,
2013-10-31 19:05:00,72.9,68.7,29.96,SE,132,0.0,1.0,87,0.00,,,0.00,0.0,meteohub,2013-10-31 23:05:00,
2013-10-31 19:10:00,72.7,68.5,29.96,SE,132,0.0,0.0,87,0.00,,,0.00,0.0,meteohub,2013-10-31 23:10:00,
2013-10-31 19:15:00,72.3,68.2,29.96,SE,132,0.0,0.0,87,0.00,,,0.00,0.0,meteohub,2013-10-31 23:15:00,
2013-10-31 19:20:00,72.0,68.2,29.97,SE,132,0.0,0.0,88,0.00,,,0.00,0.0,meteohub,2013-10-31 23:20:00,
2013-10-31 19:25:00,71.8,68.4,29.97,SE,132,0.0,0.0,89,0.00,,,0.00,0.0,meteohub,2013-10-31 23:25:00,
2013-10-31 19:30:00,71.4,68.0,29.97,SE,132,0.0,1.0,89,0.00,,,0.00,0.0,meteohub,2013-10-31 23:30:00,
2013-10-31 19:35:00,71.2,68.2,29.97,SE,132,0.0,1.0,90,0.00,,,0.00,0.0,meteohub,2013-10-31 23:35:00,
2013-10-31 19:40:00,71.2,68.2,29.97,SE,132,0.0,0.0,90,0.00,,,0.00,0.0,meteohub,2013-10-31 23:40:00,
2013-10-31 19:45:00,71.2,68.2,29.97,SE,132,0.0,0.0,90,0.00,,,0.00,0.0,meteohub,2013-10-31 23:45:00,
2013-10-31 19:50:00,71.1,68.0,29.97,SE,132,0.0,0.0,90,0.00,,,0.00,0.0,meteohub,2013-10-31 23:50:00,
2013-10-31 19:55:00,71.1,68.4,29.97,SE,132,0.0,0.0,91,0.00,,,0.00,0.0,meteohub,2013-10-31 23:55:00,
2013-10-31 20:00:00,71.1,68.4,29.97,SE,132,0.0,0.0,91,0.00,,,0.00,0.0,meteohub,2013-11-01 00:00:00,
2013-10-31 20:05:00,71.1,68.4,29.97,SE,132,0.0,0.0,91,0.00,,,0.00,0.0,meteohub,2013-11-01 00:05:00,
2013-10-31 20:10:00,71.1,68.4,29.97,SE,132,0.0,0.0,91,0.00,,,0.00,0.0,meteohub,2013-11-01 00:10:00,
2013-10-31 20:15:00,70.9,68.4,29.97,SE,132,0.0,0.0,92,0.00,,,0.00,0.0,meteohub,2013-11-01 00:15:00,
2013-10-31 20:20:00,70.9,68.4,29.97,SE,132,0.0,0.0,92,0.00,,,0.00,0.0,meteohub,2013-11-01 00:20:00,
2013-10-31 20:25:00,70.9,68.4,29.96,SE,132,0.0,1.0,92,0.00,,,0.00,0.0,meteohub,2013-11-01 00:25:00,
2013-10-31 20:30:00,70.9,68.7,29.96,SE,132,0.0,1.0,93,0.00,,,0.00,0.0,meteohub,2013-11-01 00:30:00,
2013-10-31 20:35:00,70.9,68.7,29.97,SE,132,0.0,1.0,93,0.00,,,0.00,0.0,meteohub,2013-11-01 00:35:00,
2013-10-31 20:40:00,70.7,68.5,29.97,SE,132,0.0,0.0,93,0.00,,,0.00,0.0,meteohub,2013-11-01 00:40:00,
2013-10-31 20:45:00,70.9,69.1,29.97,SSE,161,0.0,0.0,94,0.00,,,0.00,0.0,meteohub,2013-11-01 00:45:00,
2013-10-31 20:50:00,71.1,69.3,29.97,SSE,161,0.0,2.0,94,0.00,,,0.00,0.0,meteohub,2013-11-01 00:50:00,
2013-10-31 20:55:00,71.2,69.4,29.97,SE,129,0.0,2.0,94,0.00,,,0.00,0.0,meteohub,2013-11-01 00:55:00,
2013-10-31 21:00:00,71.2,69.4,29.97,SE,131,0.0,2.0,94,0.00,,,0.00,0.0,meteohub,2013-11-01 01:00:00,
2013-10-31 21:05:00,71.2,69.4,29.97,SE,130,0.0,3.0,94,0.00,,,0.00,0.0,meteohub,2013-11-01 01:05:00,
2013-10-31 21:10:00,71.4,69.6,29.97,SE,130,0.0,3.0,94,0.00,,,0.00,0.0,meteohub,2013-11-01 01:10:00,
2013-10-31 21:15:00,71.4,69.6,29.97,SE,131,0.0,3.0,94,0.00,,,0.00,0.0,meteohub,2013-11-01 01:15:00,
2013-10-31 21:20:00,71.6,69.8,29.97,SE,132,0.0,2.0,94,0.00,,,0.00,0.0,meteohub,2013-11-01 01:20:00,
2013-10-31 21:25:00,71.8,70.0,29.97,SE,132,0.0,3.0,94,0.00,,,0.00,0.0,meteohub,2013-11-01 01:25:00,
2013-10-31 21:30:00,71.6,69.8,29.97,SE,132,0.0,3.0,94,0.00,,,0.00,0.0,meteohub,2013-11-01 01:30:00,
2013-10-31 21:35:00,71.6,69.8,29.97,SE,132,0.0,1.0,94,0.00,,,0.00,0.0,meteohub,2013-11-01 01:35:00,
2013-10-31 21:40:00,71.6,69.8,29.97,SE,132,0.0,2.0,94,0.00,,,0.00,0.0,meteohub,2013-11-01 01:40:00,
2013-10-31 21:45:00,71.8,70.0,29.97,SE,144,0.0,2.0,94,0.00,,,0.00,0.0,meteohub,2013-11-01 01:45:00,
2013-10-31 21:50:00,71.8,70.0,29.97,SE,132,1.0,4.0,94,0.00,,,0.00,0.0,meteohub,2013-11-01 01:50:00,
2013-10-31 21:55:00,71.8,70.0,29.96,SSE,150,0.0,4.0,94,0.00,,,0.00,0.0,meteohub,2013-11-01 01:55:00,
2013-10-31 22:00:00,71.8,69.6,29.96,SE,140,0.0,4.0,93,0.00,,,0.00,0.0,meteohub,2013-11-01 02:00:00,
2013-10-31 22:05:00,72.0,69.8,29.96,SE,126,0.0,4.0,93,0.00,,,0.00,0.0,meteohub,2013-11-01 02:05:00,
2013-10-31 22:10:00,72.1,70.0,29.96,SE,126,0.0,4.0,93,0.00,,,0.00,0.0,meteohub,2013-11-01 02:10:00,
2013-10-31 22:15:00,72.1,70.0,29.96,SE,128,0.0,4.0,93,0.00,,,0.00,0.0,meteohub,2013-11-01 02:15:00,
2013-10-31 22:20:00,72.1,70.0,29.96,SE,128,0.0,3.0,93,0.00,,,0.00,0.0,meteohub,2013-11-01 02:20:00,
2013-10-31 22:25:00,72.0,69.8,29.96,SE,128,0.0,3.0,93,0.00,,,0.00,0.0,meteohub,2013-11-01 02:25:00,
2013-10-31 22:30:00,72.0,69.8,29.97,SE,128,0.0,2.0,93,0.00,,,0.00,0.0,meteohub,2013-11-01 02:30:00,
2013-10-31 22:35:00,72.0,69.8,29.97,SE,128,0.0,2.0,93,0.00,,,0.00,0.0,meteohub,2013-11-01 02:35:00,
2013-10-31 22:40:00,72.0,69.8,29.96,SE,126,2.0,3.0,93,0.00,,,0.00,0.0,meteohub,2013-11-01 02:40:00,
2013-10-31 22:45:00,72.0,69.8,29.96,SE,125,0.0,3.0,93,0.00,,,0.00,0.0,meteohub,2013-11-01 02:45:00,
2013-10-31 22:50:00,72.0,69.8,29.96,SE,144,0.0,3.0,93,0.00,,,0.00,0.0,meteohub,2013-11-01 02:50:00,
2013-10-31 22:55:00,72.1,70.0,29.96,SSE,160,0.0,4.0,93,0.00,,,0.00,0.0,meteohub,2013-11-01 02:55:00,
2013-10-31 23:00:00,72.1,70.0,29.96,SSE,160,0.0,4.0,93,0.00,,,0.00,0.0,meteohub,2013-11-01 03:00:00,
2013-10-31 23:05:00,72.1,70.0,29.97,SSE,156,0.0,4.0,93,0.00,,,0.00,0.0,meteohub,2013-11-01 03:05:00,
2013-10-31 23:10:00,72.3,70.2,29.97,ESE,122,0.0,4.0,93,0.00,,,0.00,0.0,meteohub,2013-11-01 03:10:00,
2013-10-31 23:15:00,72.5,70.3,29.97,SSW,194,0.0,4.0,93,0.00,,,0.00,0.0,meteohub,2013-11-01 03:15:00,
2013-10-31 23:20:00,72.7,70.2,29.97,SSE,156,1.0,7.0,92,0.00,,,0.00,0.0,meteohub,2013-11-01 03:20:00,
2013-10-31 23:25:00,72.7,70.2,29.97,SSW,194,0.0,7.0,92,0.00,,,0.00,0.0,meteohub,2013-11-01 03:25:00,
2013-10-31 23:30:00,72.9,70.3,29.97,SSE,158,1.0,5.0,92,0.00,,,0.00,0.0,meteohub,2013-11-01 03:30:00,
2013-10-31 23:35:00,72.9,70.3,29.96,SSE,167,4.0,5.0,92,0.00,,,0.00,0.0,meteohub,2013-11-01 03:35:00,
2013-10-31 23:41:00,73.0,70.3,29.96,South,180,0.0,5.0,91,0.00,,,0.00,0.0,meteohub,2013-11-01 03:41:00,
2013-10-31 23:46:00,73.0,70.3,29.97,SSE,165,1.0,5.0,91,0.00,,,0.00,0.0,meteohub,2013-11-01 03:46:00,
2013-10-31 23:51:00,73.0,70.3,29.97,South,173,3.0,5.0,91,0.00,,,0.00,0.0,meteohub,2013-11-01 03:51:00,
2013-10-31 23:56:00,73.0,70.3,29.96,SE,138,0.0,4.0,91,0.00,,,0.00,0.0,meteohub,2013-11-01 03:56:00,